Time;durP1;ratioP1;P1;durP2;ratioP2;P2;SDS_P1;SDS_P2;PMS_P1;PMS_P2;Temp;Humidity;BMP_temperature;BMP_pressure;BME280_temperature;BME280_humidity;BME280_pressure;Samples;Min_cycle;Max_cycle;Signal;HPM_P1;HPM_P2
2021/08/22 00:02:14;;;;;;;4.28;3.00;;;;;;;20.35;56.02;101620.00;5993653;29;20964;-53
2021/08/22 00:05:35;;;;;;;5.20;4.13;;;;;;;20.44;56.01;101621.47;5995587;29;20242;-54
2021/08/22 00:08:56;;;;;;;7.18;4.97;;;;;;;20.30;56.32;101615.81;5992758;29;20826;-54
2021/08/22 00:12:17;;;;;;;4.75;4.35;;;;;;;20.37;56.12;101623.44;6004534;29;20239;-50
2021/08/22 00:15:39;;;;;;;4.28;3.33;;;;;;;20.05;56.83;101629.94;5997647;29;20649;-48
2021/08/22 00:19:00;;;;;;;5.47;4.78;;;;;;;20.16;56.59;101621.59;5993167;29;20238;-49
2021/08/22 00:22:21;;;;;;;7.38;6.35;;;;;;;19.95;56.99;101628.53;5998995;29;20242;-50
2021/08/22 00:25:42;;;;;;;6.82;5.30;;;;;;;20.13;56.75;101613.81;6002546;29;20242;-52
2021/08/22 00:29:03;;;;;;;3.65;3.35;;;;;;;20.19;56.21;101617.06;6008149;29;20230;-51
2021/08/22 00:32:26;;;;;;;4.85;3.92;;;;;;;20.33;56.06;101615.69;6002928;29;20366;-51
2021/08/22 00:35:47;;;;;;;3.83;3.53;;;;;;;20.29;55.79;101616.75;6004404;29;20242;-51
2021/08/22 00:39:08;;;;;;;3.88;3.50;;;;;;;20.12;56.05;101607.63;5999482;29;20234;-48
2021/08/22 00:42:32;;;;;;;3.50;3.20;;;;;;;20.11;56.21;101600.63;6005833;29;20242;-51
2021/08/22 00:45:53;;;;;;;4.28;3.97;;;;;;;20.03;56.40;101605.34;6005081;29;20235;-49
2021/08/22 00:49:15;;;;;;;4.53;4.03;;;;;;;20.19;55.89;101603.00;6008150;29;20226;-48
2021/08/22 00:52:36;;;;;;;4.32;3.92;;;;;;;20.17;55.85;101592.47;6004808;29;20238;-52
2021/08/22 00:55:58;;;;;;;4.43;4.03;;;;;;;20.03;55.88;101584.19;6008242;29;20231;-50
2021/08/22 00:59:21;;;;;;;5.78;4.43;;;;;;;19.85;56.60;101606.84;6008269;29;20262;-52
2021/08/22 01:02:45;;;;;;;4.30;3.92;;;;;;;20.11;55.80;101597.13;6010659;29;20321;-50
2021/08/22 01:06:18;;;;;;;5.25;4.75;;;;;;;20.04;56.10;101588.53;6002466;29;20242;-52
2021/08/22 01:09:41;;;;;;;4.53;4.13;;;;;;;20.00;55.79;101585.16;6005849;29;20632;-52
2021/08/22 01:13:08;;;;;;;4.43;3.80;;;;;;;20.01;55.99;101591.31;6001756;29;20239;-52
2021/08/22 01:16:35;;;;;;;4.55;3.63;;;;;;;20.05;55.86;101582.34;6000551;29;20226;-53
2021/08/22 01:20:08;;;;;;;4.50;3.35;;;;;;;19.92;55.96;101581.06;6008112;29;20235;-49
2021/08/22 01:23:31;;;;;;;3.80;3.40;;;;;;;19.91;55.87;101574.94;6010329;29;20249;-50
2021/08/22 01:26:54;;;;;;;4.25;3.25;;;;;;;19.91;56.15;101566.09;6009699;29;20238;-48
2021/08/22 01:30:18;;;;;;;4.68;2.97;;;;;;;19.97;55.80;101569.41;6006198;29;20243;-52
2021/08/22 01:33:41;;;;;;;3.53;3.22;;;;;;;19.86;56.24;101555.72;6004360;29;20247;-52
2021/08/22 01:37:02;;;;;;;3.15;2.95;;;;;;;19.78;56.21;101560.44;6006778;29;20612;-50
2021/08/22 01:40:26;;;;;;;3.55;3.25;;;;;;;19.74;56.42;101549.09;6006501;29;20240;-52
2021/08/22 01:43:47;;;;;;;2.63;2.40;;;;;;;19.69;56.49;101558.91;6005256;29;20609;-52
2021/08/22 01:47:10;;;;;;;2.92;2.70;;;;;;;19.74;56.49;101542.97;5998267;29;20246;-52
2021/08/22 01:50:33;;;;;;;2.47;2.28;;;;;;;19.59;56.86;101552.25;5999694;29;20230;-53
2021/08/22 01:53:56;;;;;;;2.63;2.42;;;;;;;19.62;56.39;101541.59;6005328;29;20516;-51
2021/08/22 01:57:18;;;;;;;4.80;2.80;;;;;;;19.59;56.41;101552.25;6007142;29;20237;-50
2021/08/22 02:00:39;;;;;;;3.10;2.38;;;;;;;19.88;55.12;101542.44;6006398;29;20286;-49
2021/08/22 02:04:03;;;;;;;2.70;2.50;;;;;;;19.51;56.40;101539.31;6005313;29;20239;-52
2021/08/22 02:07:30;;;;;;;3.50;2.75;;;;;;;19.51;56.19;101536.66;6002991;29;20258;-49
2021/08/22 02:10:59;;;;;;;2.80;2.60;;;;;;;19.52;55.87;101532.22;6006862;29;20286;-51
2021/08/22 02:14:24;;;;;;;3.05;2.85;;;;;;;19.60;55.63;101535.47;6006525;29;20238;-52
2021/08/22 02:17:49;;;;;;;3.78;2.53;;;;;;;19.52;55.76;101530.44;6003798;29;20241;-53
2021/08/22 02:21:10;;;;;;;2.80;2.60;;;;;;;19.44;55.80;101517.53;5979904;29;20273;-49
2021/08/22 02:24:33;;;;;;;1.80;1.70;;;;;;;19.43;55.97;101515.81;5999108;29;20564;-54
2021/08/22 02:27:55;;;;;;;2.38;2.17;;;;;;;19.34;55.95;101524.03;6005779;29;20238;-50
2021/08/22 02:31:16;;;;;;;4.38;2.67;;;;;;;19.33;55.52;101505.59;5996057;29;20231;-53
2021/08/22 02:34:38;;;;;;;2.75;2.40;;;;;;;19.21;55.83;101501.59;6003909;29;20675;-49
2021/08/22 02:37:59;;;;;;;3.63;2.20;;;;;;;19.13;55.81;101506.28;6004360;29;20668;-52
2021/08/22 02:41:22;;;;;;;2.00;1.90;;;;;;;19.04;56.08;101503.06;6008028;29;20247;-50
2021/08/22 02:44:43;;;;;;;2.53;2.35;;;;;;;18.88;56.41;101502.72;6004074;29;20258;-52
2021/08/22 02:48:05;;;;;;;2.50;2.30;;;;;;;19.05;55.93;101488.94;5999109;29;20317;-48
2021/08/22 02:51:26;;;;;;;2.03;1.90;;;;;;;18.97;55.92;101493.59;6001579;29;20238;-48
2021/08/22 02:54:47;;;;;;;2.88;1.90;;;;;;;18.99;55.67;101493.56;6003980;29;20416;-52
2021/08/22 02:58:09;;;;;;;2.45;2.03;;;;;;;18.94;55.66;101499.00;6002729;29;20234;-52
2021/08/22 03:01:30;;;;;;;4.20;2.42;;;;;;;18.94;55.56;101488.44;5997920;29;20731;-49
2021/08/22 03:04:51;;;;;;;2.45;1.92;;;;;;;19.02;55.26;101493.47;6005075;29;20257;-47
2021/08/22 03:08:12;;;;;;;2.67;2.10;;;;;;;19.03;55.13;101493.41;6001896;29;20227;-53
2021/08/22 03:11:33;;;;;;;6.75;3.00;;;;;;;19.12;54.86;101486.09;6003443;29;20239;-51
2021/08/22 03:14:56;;;;;;;3.08;1.77;;;;;;;18.99;54.93;101483.84;6004534;29;20231;-53
2021/08/22 03:18:17;;;;;;;1.95;1.60;;;;;;;18.87;54.82;101484.28;5998629;29;21900;-52
2021/08/22 03:21:41;;;;;;;2.60;2.40;;;;;;;18.99;54.86;101483.84;6001284;29;20333;-53
2021/08/22 03:25:05;;;;;;;3.53;2.38;;;;;;;19.00;54.41;101485.59;6005544;29;20242;-54
2021/08/22 03:28:27;;;;;;;2.45;2.10;;;;;;;18.84;54.70;101484.38;6004374;29;20242;-50
2021/08/22 03:31:50;;;;;;;2.83;1.95;;;;;;;18.98;54.34;101482.16;6009050;29;20234;-50
2021/08/22 03:35:11;;;;;;;3.20;2.40;;;;;;;19.00;54.32;101475.03;6001127;29;20625;-53
2021/08/22 03:38:32;;;;;;;2.00;1.80;;;;;;;18.88;54.51;101478.06;6003118;29;20234;-50
2021/08/22 03:41:53;;;;;;;4.55;3.13;;;;;;;19.07;54.36;101486.25;6001612;29;20235;-50
2021/08/22 03:45:15;;;;;;;2.92;2.58;;;;;;;19.17;53.87;101476.22;6006083;29;20235;-52
2021/08/22 03:48:37;;;;;;;2.92;2.13;;;;;;;19.04;54.38;101474.03;5998975;29;20234;-48
2021/08/22 03:51:58;;;;;;;4.22;2.80;;;;;;;19.04;54.04;101468.75;5997736;29;20306;-52
2021/08/22 03:55:18;;;;;;;2.17;1.98;;;;;;;18.49;55.39;101476.66;5988354;29;20250;-50
2021/08/22 03:58:39;;;;;;;3.55;2.65;;;;;;;18.76;54.89;101470.53;5981433;29;20826;-50
2021/08/22 04:02:00;;;;;;;2.95;2.75;;;;;;;18.90;54.67;101463.03;6232446;23;20243;-51
2021/08/22 04:05:55;;;;;;;3.28;2.08;;;;;;;18.66;55.02;101465.56;5943773;29;20235;-51
2021/08/22 04:09:16;;;;;;;1.63;1.52;;;;;;;18.57;55.60;101462.34;5964938;29;20246;-49
2021/08/22 04:12:38;;;;;;;2.00;1.90;;;;;;;18.78;54.79;101463.44;5969377;29;20655;-51
2021/08/22 04:15:59;;;;;;;2.33;2.05;;;;;;;18.80;54.60;101461.63;5967977;29;20533;-53
2021/08/22 04:19:20;;;;;;;2.50;2.30;;;;;;;18.69;55.06;101454.06;5966459;29;20626;-48
2021/08/22 04:22:42;;;;;;;2.20;1.95;;;;;;;18.72;54.57;101450.44;5969863;29;20239;-51
2021/08/22 04:26:03;;;;;;;2.00;1.85;;;;;;;18.81;54.61;101444.91;5972359;29;20318;-49
2021/08/22 04:29:25;;;;;;;2.30;2.10;;;;;;;18.74;54.60;101448.63;5972594;29;20317;-52
2021/08/22 04:32:46;;;;;;;2.78;2.35;;;;;;;18.75;54.36;101445.09;5976288;29;20714;-55
2021/08/22 04:36:07;;;;;;;3.10;1.88;;;;;;;18.62;54.81;101444.63;5970593;29;20598;-51
2021/08/22 04:39:29;;;;;;;2.80;2.60;;;;;;;18.67;54.59;101446.19;5972015;29;20501;-49
2021/08/22 04:42:51;;;;;;;2.33;1.85;;;;;;;18.81;54.67;101448.41;5975941;29;20274;-52
2021/08/22 04:46:11;;;;;;;1.67;1.58;;;;;;;18.87;54.11;101452.63;5972411;29;20615;-50
2021/08/22 04:49:32;;;;;;;1.65;1.50;;;;;;;18.94;54.22;101451.50;5971597;29;20563;-52
2021/08/22 04:52:54;;;;;;;2.47;1.48;;;;;;;19.06;53.93;101451.06;5971692;29;20235;-50
2021/08/22 04:56:16;;;;;;;2.05;1.75;;;;;;;18.85;54.04;101450.03;5966943;29;20606;-53
2021/08/22 04:59:37;;;;;;;1.58;1.25;;;;;;;18.91;53.92;101463.94;5980893;29;20223;-52
2021/08/22 05:02:58;;;;;;;1.80;1.70;;;;;;;18.92;53.97;101453.34;5978674;29;20267;-50
2021/08/22 05:06:19;;;;;;;3.78;1.90;;;;;;;19.10;53.70;101448.34;5982792;29;20250;-47
2021/08/22 05:09:40;;;;;;;2.17;1.77;;;;;;;18.85;54.28;101457.09;5979822;29;20545;-52
2021/08/22 05:13:03;;;;;;;1.30;1.20;;;;;;;18.84;54.18;101450.06;5985663;29;20238;-48
2021/08/22 05:16:24;;;;;;;3.10;2.00;;;;;;;18.81;54.31;101450.19;5989939;29;20621;-52
2021/08/22 05:19:45;;;;;;;1.45;1.35;;;;;;;19.08;53.78;101448.38;5985079;29;20243;-54
2021/08/22 05:23:06;;;;;;;1.88;1.77;;;;;;;18.99;53.86;101460.09;5984497;29;20251;-54
2021/08/22 05:26:27;;;;;;;1.88;1.73;;;;;;;19.01;53.67;101452.13;5985097;29;20235;-49
2021/08/22 05:29:49;;;;;;;1.88;1.70;;;;;;;18.98;54.06;101460.16;5983507;29;20243;-52
2021/08/22 05:33:10;;;;;;;2.22;1.77;;;;;;;18.89;54.23;101464.84;5987715;29;20641;-48
2021/08/22 05:36:35;;;;;;;2.83;1.23;;;;;;;18.90;54.18;101463.03;5984507;29;20326;-52
2021/08/22 05:39:56;;;;;;;2.38;1.80;;;;;;;18.79;54.43;101470.44;5984352;29;20250;-49
2021/08/22 05:43:16;;;;;;;1.88;1.77;;;;;;;18.92;54.16;101471.81;5984488;29;20247;-50
2021/08/22 05:46:39;;;;;;;2.28;2.05;;;;;;;19.05;53.86;101465.16;5985757;29;20239;-50
2021/08/22 05:50:00;;;;;;;3.75;1.90;;;;;;;18.92;54.10;101466.53;5983191;29;20243;-49
2021/08/22 05:53:21;;;;;;;1.80;1.70;;;;;;;18.93;53.95;101478.78;5985994;29;20318;-51
2021/08/22 05:56:42;;;;;;;2.10;1.90;;;;;;;18.98;53.95;101470.72;5985601;29;20259;-48
2021/08/22 06:00:04;;;;;;;1.70;1.60;;;;;;;18.89;54.47;101477.16;5973897;29;20522;-50
2021/08/22 06:03:35;;;;;;;3.08;1.67;;;;;;;18.94;54.06;101485.81;5977632;29;20282;-49
2021/08/22 06:06:56;;;;;;;3.33;2.08;;;;;;;18.84;54.32;101479.09;5981677;29;20227;-52
2021/08/22 06:10:17;;;;;;;1.70;1.60;;;;;;;18.73;54.63;101482.06;5983445;29;20539;-49
2021/08/22 06:13:38;;;;;;;2.95;2.10;;;;;;;19.05;53.82;101472.22;5984803;29;20235;-54
2021/08/22 06:16:59;;;;;;;2.92;1.35;;;;;;;19.10;53.76;101464.19;5985000;29;20263;-48
2021/08/22 06:20:21;;;;;;;2.83;2.63;;;;;;;18.92;54.25;101458.59;5978533;29;20644;-50
2021/08/22 06:23:42;;;;;;;2.15;1.63;;;;;;;18.94;54.93;101458.53;5978534;29;20621;-54
2021/08/22 06:27:03;;;;;;;2.30;1.58;;;;;;;19.04;54.79;101455.53;5981925;29;20700;-49
2021/08/22 06:30:24;;;;;;;2.03;1.80;;;;;;;18.79;55.51;101457.25;5978818;29;21423;-48
2021/08/22 06:33:46;;;;;;;1.80;1.70;;;;;;;18.89;55.25;101456.91;5975418;29;20632;-52
2021/08/22 06:37:09;;;;;;;4.15;1.88;;;;;;;18.83;55.34;101461.56;5981734;29;20251;-53
2021/08/22 06:40:30;;;;;;;2.55;1.77;;;;;;;18.99;55.25;101465.38;5983639;29;20600;-52
2021/08/22 06:43:51;;;;;;;3.13;1.55;;;;;;;19.21;54.42;101469.91;5977244;29;20243;-53
2021/08/22 06:47:12;;;;;;;2.13;1.50;;;;;;;19.15;54.57;101456.94;5973157;29;20589;-54
2021/08/22 06:50:33;;;;;;;2.75;1.73;;;;;;;19.17;54.29;101461.25;5980162;29;20235;-51
2021/08/22 06:53:56;;;;;;;5.60;3.80;;;;;;;19.26;53.96;101460.06;5976668;29;20622;-53
2021/08/22 06:57:17;;;;;;;3.42;2.33;;;;;;;19.19;54.03;101463.84;5985897;29;20629;-50
2021/08/22 07:00:38;;;;;;;2.58;2.03;;;;;;;19.15;54.67;101462.22;5976089;29;20239;-47
2021/08/22 07:03:59;;;;;;;1.65;1.55;;;;;;;19.03;54.62;101469.63;5970546;29;20231;-49
2021/08/22 07:07:20;;;;;;;1.83;1.73;;;;;;;18.83;54.65;101498.50;5982265;29;20256;-50
2021/08/22 07:10:43;;;;;;;1.75;1.65;;;;;;;18.23;56.83;101529.34;5980946;29;20270;-49
2021/08/22 07:14:04;;;;;;;2.03;1.80;;;;;;;18.56;55.99;101511.63;5975617;29;20251;-50
2021/08/22 07:17:25;;;;;;;2.90;1.92;;;;;;;18.88;55.09;101512.38;5976485;29;20238;-49
2021/08/22 07:20:46;;;;;;;2.75;1.52;;;;;;;18.57;55.86;101512.47;5975249;29;20239;-52
2021/08/22 07:24:07;;;;;;;2.33;1.92;;;;;;;18.98;54.43;101503.25;5982605;29;20370;-52
2021/08/22 07:27:30;;;;;;;2.47;2.22;;;;;;;19.19;54.73;101517.53;5979153;29;20243;-52
2021/08/22 07:30:51;;;;;;;3.67;3.35;;;;;;;19.33;54.23;101519.69;5980795;29;20239;-52
2021/08/22 07:34:11;;;;;;;2.45;2.25;;;;;;;19.39;54.38;101508.91;5979089;29;20305;-49
2021/08/22 07:37:32;;;;;;;3.35;3.05;;;;;;;19.59;53.74;101484.41;5982794;29;20249;-54
2021/08/22 07:40:53;;;;;;;4.03;3.03;;;;;;;19.72;53.38;101474.31;5974905;29;20625;-54
2021/08/22 07:44:16;;;;;;;2.20;2.00;;;;;;;19.88;53.66;101500.16;5974469;29;20266;-48
2021/08/22 07:47:37;;;;;;;4.63;2.38;;;;;;;21.02;54.00;101489.47;5971762;29;20489;-48
2021/08/22 07:50:57;;;;;;;4.13;2.42;;;;;;;21.45;50.79;101488.59;5980508;29;20247;-51
2021/08/22 07:54:18;;;;;;;3.40;2.15;;;;;;;21.55;50.97;101495.19;5977708;29;20412;-55
2021/08/22 07:57:40;;;;;;;3.72;1.98;;;;;;;21.48;49.96;101483.16;5974812;29;20500;-50
2021/08/22 08:01:02;;;;;;;2.45;2.25;;;;;;;21.72;50.07;101487.34;5981073;29;20239;-51
2021/08/22 08:04:23;;;;;;;2.58;2.35;;;;;;;21.68;48.95;101491.06;5968078;29;20579;-49
2021/08/22 08:07:44;;;;;;;2.63;1.73;;;;;;;21.38;48.77;101487.94;5988698;29;20231;-51
2021/08/22 08:11:06;;;;;;;2.50;2.28;;;;;;;21.81;49.65;101488.75;5981516;29;20518;-51
2021/08/22 08:14:27;;;;;;;1.80;1.70;;;;;;;21.57;48.75;101491.53;5985033;29;20247;-50
2021/08/22 08:17:49;;;;;;;3.53;2.10;;;;;;;21.56;50.22;101481.03;5987388;29;20270;-51
2021/08/22 08:21:10;;;;;;;1.80;1.70;;;;;;;21.73;49.56;101497.03;5990541;29;20364;-51
2021/08/22 08:24:30;;;;;;;2.65;1.70;;;;;;;21.14;49.82;101492.53;5989305;29;20238;-52
2021/08/22 08:27:51;;;;;;;2.60;1.67;;;;;;;21.30;49.58;101485.63;5993270;29;20541;-49
2021/08/22 08:31:13;;;;;;;1.52;1.42;;;;;;;20.73;50.41;101492.47;5981750;29;20236;-49
2021/08/22 08:34:35;;;;;;;5.18;2.00;;;;;;;20.68;50.66;101487.34;5982940;29;20929;-51
2021/08/22 08:37:56;;;;;;;3.20;1.90;;;;;;;20.92;50.83;101487.25;5985373;29;20790;-49
2021/08/22 08:41:17;;;;;;;2.92;2.25;;;;;;;20.61;51.29;101497.34;5987553;29;20563;-47
2021/08/22 08:44:38;;;;;;;2.25;1.98;;;;;;;20.88;50.88;101494.50;5993620;29;20243;-48
2021/08/22 08:47:59;;;;;;;7.13;2.33;;;;;;;20.67;50.98;101498.88;5992596;29;20238;-53
2021/08/22 08:51:30;;;;;;;2.47;2.28;;;;;;;20.90;50.48;101491.75;5987927;29;20646;-51
2021/08/22 08:54:51;;;;;;;2.30;2.20;;;;;;;20.76;51.01;101497.63;5994876;29;20242;-54
2021/08/22 08:58:12;;;;;;;2.67;1.92;;;;;;;20.74;50.43;101505.63;5999187;29;20243;-51
2021/08/22 09:01:36;;;;;;;1.77;1.67;;;;;;;20.50;50.97;101507.47;5999048;29;20239;-49
2021/08/22 09:05:10;;;;;;;2.38;1.65;;;;;;;20.70;50.77;101511.97;5992030;29;20240;-50
2021/08/22 09:09:16;;;;;;;1.88;1.77;;;;;;;20.71;51.25;101518.16;5980884;29;21704;-51
2021/08/22 09:13:22;;;;;;;2.80;2.17;;;;;;;20.36;51.71;101507.16;5981895;29;20610;-51
2021/08/22 09:17:20;;;;;;;1.80;1.70;;;;;;;20.53;51.33;101517.03;5957365;29;20239;-48
2021/08/22 09:21:15;;;;;;;2.63;1.45;;;;;;;20.67;51.22;101516.56;5980218;29;20450;-49
2021/08/22 09:25:09;;;;;;;3.92;1.70;;;;;;;20.52;51.42;101516.19;5981709;29;20610;-52
2021/08/22 09:29:13;;;;;;;1.60;1.50;;;;;;;20.11;52.77;101517.81;5980747;29;20238;-49
2021/08/22 09:33:07;;;;;;;3.60;2.15;;;;;;;20.33;51.99;101518.69;5997548;29;20235;-48
2021/08/22 09:37:01;;;;;;;2.50;2.30;;;;;;;20.27;52.37;101516.28;5979020;29;20259;-51
2021/08/22 09:40:59;;;;;;;4.47;3.15;;;;;;;20.50;52.27;101523.34;5971817;29;20251;-51
2021/08/22 09:44:59;;;;;;;1.90;1.70;;;;;;;20.29;52.76;101524.16;5996451;29;20297;-47
2021/08/22 09:48:59;;;;;;;2.72;1.85;;;;;;;20.20;52.94;101528.91;5996645;29;20239;-49
2021/08/22 09:53:03;;;;;;;2.97;2.78;;;;;;;20.19;53.64;101532.44;5987744;29;20235;-51
2021/08/22 09:57:18;;;;;;;2.63;2.42;;;;;;;20.23;53.83;101535.84;5997028;29;20238;-50
2021/08/22 10:01:05;;;;;;;3.08;2.13;;;;;;;20.00;54.35;101542.00;5980531;29;20243;-52
2021/08/22 10:05:03;;;;;;;2.55;2.35;;;;;;;19.73;55.17;101538.56;5989585;29;20247;-47
2021/08/22 10:08:29;;;;;;;1.95;1.85;;;;;;;19.48;55.69;101552.59;5996317;29;20255;-50
2021/08/22 10:11:55;;;;;;;3.78;3.47;;;;;;;19.34;57.69;101547.81;5998608;29;20523;-50
2021/08/22 10:15:18;;;;;;;3.22;2.90;;;;;;;19.54;58.36;101548.88;5997172;29;20536;-47
2021/08/22 10:18:39;;;;;;;3.53;3.22;;;;;;;19.52;59.92;101553.38;5977441;29;20963;-51
2021/08/22 10:22:12;;;;;;;2.55;2.35;;;;;;;19.65;59.80;101546.75;5992020;29;20314;-47
2021/08/22 10:25:47;;;;;;;3.42;2.83;;;;;;;19.62;60.04;101546.88;5994218;29;20617;-49
2021/08/22 10:29:10;;;;;;;2.97;2.22;;;;;;;19.69;59.45;101545.72;5994928;29;20235;-49
2021/08/22 10:32:31;;;;;;;3.70;3.30;;;;;;;19.57;60.50;101548.81;5990986;29;20239;-48
2021/08/22 10:36:06;;;;;;;3.75;3.25;;;;;;;19.63;61.03;101553.84;5988415;29;20243;-53
2021/08/22 10:39:30;;;;;;;3.30;2.97;;;;;;;19.76;60.92;101549.91;5986508;29;20239;-51
2021/08/22 10:42:51;;;;;;;3.38;3.08;;;;;;;19.87;60.15;101549.50;5994564;29;20585;-50
2021/08/22 10:46:16;;;;;;;2.80;2.60;;;;;;;20.04;59.96;101551.53;5994849;29;20255;-53
2021/08/22 10:49:58;;;;;;;4.95;3.45;;;;;;;19.99;59.90;101562.28;5994663;29;20641;-48
2021/08/22 10:53:26;;;;;;;2.97;2.70;;;;;;;19.83;60.34;101559.34;5996843;29;20464;-52
2021/08/22 10:56:48;;;;;;;2.92;2.72;;;;;;;19.88;60.84;101560.94;5991221;29;20317;-51
2021/08/22 11:00:19;;;;;;;4.32;3.20;;;;;;;19.83;60.93;101555.81;5981743;29;20228;-51
2021/08/22 11:03:41;;;;;;;3.72;3.38;;;;;;;19.74;61.51;101562.31;5996129;29;20578;-50
2021/08/22 11:07:06;;;;;;;3.40;2.50;;;;;;;19.83;61.00;101556.69;5987673;29;20521;-49
2021/08/22 11:10:28;;;;;;;4.10;2.67;;;;;;;19.94;61.47;101566.00;5993874;29;20242;-47
2021/08/22 11:13:53;;;;;;;3.25;2.95;;;;;;;19.98;61.49;101564.97;6000433;29;20512;-48
2021/08/22 11:17:14;;;;;;;4.03;2.88;;;;;;;19.94;62.35;101568.66;5994420;29;20243;-51
2021/08/22 11:20:39;;;;;;;3.97;2.63;;;;;;;19.98;62.34;101570.25;5993052;29;20334;-48
2021/08/22 11:24:01;;;;;;;3.53;2.72;;;;;;;19.68;63.16;101573.06;5999801;29;20239;-50
2021/08/22 11:27:22;;;;;;;7.50;4.05;;;;;;;19.79;62.57;101575.34;5993247;29;20258;-53
2021/08/22 11:30:46;;;;;;;4.47;3.20;;;;;;;19.88;63.20;101568.88;5993138;29;20271;-49
2021/08/22 11:34:12;;;;;;;3.70;3.40;;;;;;;19.75;63.66;101571.94;5991698;29;20361;-52
2021/08/22 11:37:34;;;;;;;3.80;3.38;;;;;;;19.64;64.18;101576.75;5988359;29;20330;-50
2021/08/22 11:41:01;;;;;;;3.78;2.95;;;;;;;19.67;64.08;101581.91;5994363;29;20265;-51
2021/08/22 11:44:23;;;;;;;4.20;3.00;;;;;;;19.88;63.52;101574.16;5990201;29;20235;-49
2021/08/22 11:47:45;;;;;;;4.20;3.83;;;;;;;19.79;63.21;101580.63;5996324;29;20645;-52
2021/08/22 11:51:06;;;;;;;3.53;3.22;;;;;;;19.99;63.74;101577.28;5994349;29;20298;-53
2021/08/22 11:54:31;;;;;;;5.10;3.90;;;;;;;19.95;63.61;101575.66;5993129;29;20243;-48
2021/08/22 11:58:07;;;;;;;3.50;3.30;;;;;;;20.00;63.41;101586.94;5996073;29;20235;-49
2021/08/22 12:01:28;;;;;;;4.32;3.63;;;;;;;19.97;63.23;101574.69;5988705;29;20251;-50
2021/08/22 12:04:49;;;;;;;3.55;3.25;;;;;;;19.67;64.55;101592.47;5992717;29;20258;-51
2021/08/22 12:08:12;;;;;;;5.25;3.45;;;;;;;19.67;64.83;101592.47;5993568;29;20381;-50
2021/08/22 12:11:34;;;;;;;4.43;4.03;;;;;;;19.82;64.62;101585.81;5994027;29;20242;-53
2021/08/22 12:15:07;;;;;;;3.72;3.25;;;;;;;19.72;64.70;101587.06;5996771;29;20635;-50
2021/08/22 12:18:30;;;;;;;4.88;3.28;;;;;;;19.75;64.78;101585.16;5992210;29;20665;-49
2021/08/22 12:21:52;;;;;;;4.00;3.33;;;;;;;19.69;65.22;101593.28;5994827;29;20660;-52
2021/08/22 12:25:24;;;;;;;2.50;2.30;;;;;;;19.48;65.52;101590.47;5998262;29;20235;-49
2021/08/22 12:28:47;;;;;;;3.60;2.63;;;;;;;19.45;65.69;101582.63;6002128;29;20235;-53
2021/08/22 12:32:09;;;;;;;4.78;4.38;;;;;;;19.61;65.53;101587.41;5998566;29;20306;-48
2021/08/22 12:35:30;;;;;;;5.22;4.78;;;;;;;19.78;64.69;101600.06;5999329;29;20231;-50
2021/08/22 12:38:59;;;;;;;3.42;3.13;;;;;;;19.66;64.88;101591.59;6002023;29;20268;-49
2021/08/22 12:42:20;;;;;;;5.10;3.67;;;;;;;19.89;64.26;101592.63;5996401;29;20342;-49
2021/08/22 12:45:42;;;;;;;4.57;4.13;;;;;;;19.96;64.21;101580.03;6002549;29;20251;-54
2021/08/22 12:49:04;;;;;;;4.45;4.05;;;;;;;19.76;64.29;101594.81;5999558;29;20243;-46
2021/08/22 12:52:26;;;;;;;3.25;2.95;;;;;;;19.67;64.21;101592.47;5999032;29;20227;-48
2021/08/22 12:55:47;;;;;;;2.70;2.28;;;;;;;19.37;65.13;101589.97;6001951;29;20594;-47
2021/08/22 12:59:08;;;;;;;3.47;2.95;;;;;;;19.55;64.92;101590.25;6002134;29;20235;-49
2021/08/22 13:02:33;;;;;;;3.95;3.45;;;;;;;19.71;64.95;101596.72;6003159;29;20321;-51
2021/08/22 13:05:54;;;;;;;3.05;2.85;;;;;;;19.80;65.18;101600.88;5999952;29;20529;-52
2021/08/22 13:09:15;;;;;;;4.18;2.90;;;;;;;19.66;65.34;101602.19;6002817;29;20247;-50
2021/08/22 13:12:36;;;;;;;4.03;3.72;;;;;;;19.60;65.40;101607.69;5989931;29;20258;-50
2021/08/22 13:15:57;;;;;;;3.40;3.17;;;;;;;19.34;66.77;101599.75;6001508;29;20331;-49
2021/08/22 13:19:19;;;;;;;4.28;3.05;;;;;;;19.34;65.87;101610.31;5996996;29;20238;-48
2021/08/22 13:22:40;;;;;;;4.70;3.22;;;;;;;19.20;66.06;101605.50;5998092;29;20239;-51
2021/08/22 13:26:04;;;;;;;4.75;3.60;;;;;;;19.14;66.56;101608.34;5997720;29;20629;-49
2021/08/22 13:29:24;;;;;;;5.18;4.68;;;;;;;19.23;66.42;101613.31;6003764;29;20614;-47
2021/08/22 13:32:45;;;;;;;3.67;3.38;;;;;;;19.16;66.67;101620.56;5998887;29;21008;-54
2021/08/22 13:36:08;;;;;;;4.28;3.80;;;;;;;19.18;66.72;101620.53;5998909;29;20262;-53
2021/08/22 13:39:29;;;;;;;4.20;3.35;;;;;;;18.90;67.32;101621.38;5996201;29;20243;-50
2021/08/22 13:42:50;;;;;;;4.18;3.63;;;;;;;18.78;67.46;101616.47;5993722;29;20330;-51
2021/08/22 13:46:11;;;;;;;2.92;2.72;;;;;;;18.57;67.06;101613.59;6000523;29;20250;-47
2021/08/22 13:49:32;;;;;;;3.05;2.75;;;;;;;18.73;66.47;101613.09;5994219;29;20239;-54
2021/08/22 13:52:55;;;;;;;4.45;3.20;;;;;;;18.99;66.19;101610.56;5988904;29;20247;-51
2021/08/22 13:56:17;;;;;;;3.95;3.63;;;;;;;18.95;66.35;101616.84;5991141;29;20231;-53
2021/08/22 13:59:38;;;;;;;3.90;3.60;;;;;;;18.95;67.35;101613.34;5990902;29;20232;-49
2021/08/22 14:02:59;;;;;;;3.53;3.22;;;;;;;19.11;66.66;101613.72;5989290;29;20617;-50
2021/08/22 14:06:20;;;;;;;4.07;3.78;;;;;;;19.22;66.85;101609.81;5990398;29;20246;-48
2021/08/22 14:09:42;;;;;;;4.53;4.13;;;;;;;19.40;66.65;101605.69;5991999;29;20266;-50
2021/08/22 14:13:03;;;;;;;4.57;4.18;;;;;;;19.18;67.06;101615.25;5993543;29;20270;-52
2021/08/22 14:16:25;;;;;;;8.30;5.60;;;;;;;19.18;67.09;101609.97;5991271;29;20247;-47
2021/08/22 14:19:49;;;;;;;5.90;4.95;;;;;;;19.02;67.25;101610.47;5991431;29;20585;-53
2021/08/22 14:23:10;;;;;;;4.93;4.43;;;;;;;18.98;67.95;101613.22;5991519;29;20235;-51
2021/08/22 14:26:32;;;;;;;5.00;3.85;;;;;;;18.98;67.99;101608.84;5996145;29;20239;-48
2021/08/22 14:29:53;;;;;;;4.80;3.90;;;;;;;18.96;68.02;101610.66;5992391;29;20519;-48
2021/08/22 14:33:14;;;;;;;3.50;3.20;;;;;;;18.80;69.08;101599.69;5989977;29;20532;-50
2021/08/22 14:36:36;;;;;;;6.75;5.13;;;;;;;19.01;68.80;101600.81;5989288;29;20231;-50
2021/08/22 14:39:57;;;;;;;4.72;4.18;;;;;;;18.94;68.42;101596.66;5999492;29;20289;-53
2021/08/22 14:43:20;;;;;;;3.95;3.55;;;;;;;18.85;68.75;101602.22;5998010;29;20231;-51
2021/08/22 14:46:41;;;;;;;3.90;3.50;;;;;;;18.71;68.28;101602.63;5995829;29;20247;-53
2021/08/22 14:50:02;;;;;;;4.75;4.18;;;;;;;18.86;67.64;101607.44;5991067;29;20526;-51
2021/08/22 14:53:23;;;;;;;5.85;4.15;;;;;;;18.80;67.72;101610.25;5989097;29;20322;-51
2021/08/22 14:56:44;;;;;;;4.10;3.47;;;;;;;18.89;67.24;101609.97;5997527;29;20235;-51
2021/08/22 15:00:08;;;;;;;4.05;3.65;;;;;;;18.78;67.72;101605.91;5994066;29;20739;-51
2021/08/22 15:03:29;;;;;;;4.78;4.32;;;;;;;18.93;67.76;101610.75;5992949;29;20239;-48
2021/08/22 15:06:50;;;;;;;3.53;3.22;;;;;;;18.93;67.91;101605.47;5995543;29;20255;-52
2021/08/22 15:10:11;;;;;;;5.10;3.55;;;;;;;18.89;68.60;101603.84;5982385;29;20235;-49
2021/08/22 15:13:32;;;;;;;8.95;4.07;;;;;;;19.11;68.34;101598.72;5992622;29;20731;-52
2021/08/22 15:16:55;;;;;;;3.40;3.10;;;;;;;19.11;68.51;101604.00;5991499;29;20236;-50
2021/08/22 15:20:16;;;;;;;3.88;3.50;;;;;;;19.28;68.35;101601.69;5993124;29;20669;-52
2021/08/22 15:23:38;;;;;;;4.68;3.90;;;;;;;19.14;68.92;101597.78;5991420;29;20322;-50
2021/08/22 15:27:01;;;;;;;11.02;10.20;;;;;;;19.01;68.17;101605.22;5990887;29;20231;-53
2021/08/22 15:30:22;;;;;;;13.85;12.73;;;;;;;18.96;68.22;101600.09;5994834;29;20267;-52
2021/08/22 15:33:44;;;;;;;6.75;6.15;;;;;;;18.59;69.64;101603.84;5992800;29;20235;-54
2021/08/22 15:37:06;;;;;;;3.97;3.58;;;;;;;18.55;69.52;101609.25;5981732;29;20338;-50
2021/08/22 15:40:27;;;;;;;3.95;3.50;;;;;;;18.64;69.50;101601.91;5990293;29;20701;-52
2021/08/22 15:43:47;;;;;;;4.03;3.70;;;;;;;18.83;68.73;101609.31;5993699;29;20548;-49
2021/08/22 15:47:09;;;;;;;6.78;3.83;;;;;;;18.89;68.47;101611.75;5996368;29;20539;-54
2021/08/22 15:50:31;;;;;;;4.25;3.95;;;;;;;18.96;68.60;101615.06;5993291;29;20267;-54